sensor_id;sensor_type;location;lat;lon;timestamp;pressure;altitude;pressure_sealevel;temperature;humidity
65666;BME280;52365;47.464;18.976;2024-02-15T00:00:03;100505.53;;;9.36;60.31
65666;BME280;52365;47.464;18.976;2024-02-15T00:00:24;100510.12;;;9.23;60.49
65666;BME280;52365;47.464;18.976;2024-02-15T00:00:47;100503.84;;;9.13;60.90
65666;BME280;52365;47.464;18.976;2024-02-15T00:01:09;100508.75;;;8.86;61.62
65666;BME280;52365;47.464;18.976;2024-02-15T00:01:30;100509.09;;;8.88;61.87
65666;BME280;52365;47.464;18.976;2024-02-15T00:01:51;100513.06;;;9.12;61.63
65666;BME280;52365;47.464;18.976;2024-02-15T00:02:07;100505.50;;;9.23;61.09
65666;BME280;52365;47.464;18.976;2024-02-15T00:02:28;100509.69;;;9.24;60.86
65666;BME280;52365;47.464;18.976;2024-02-15T00:02:49;100514.09;;;9.18;60.84
65666;BME280;52365;47.464;18.976;2024-02-15T00:03:09;100509.03;;;9.20;60.80
65666;BME280;52365;47.464;18.976;2024-02-15T00:03:34;100506.31;;;9.20;60.78
65666;BME280;52365;47.464;18.976;2024-02-15T00:03:56;100503.47;;;9.27;60.66
65666;BME280;52365;47.464;18.976;2024-02-15T00:04:18;100517.22;;;9.29;60.50
65666;BME280;52365;47.464;18.976;2024-02-15T00:04:39;100519.72;;;9.07;60.84
65666;BME280;52365;47.464;18.976;2024-02-15T00:05:00;100509.03;;;8.91;61.40
65666;BME280;52365;47.464;18.976;2024-02-15T00:05:21;100510.78;;;8.81;61.89
65666;BME280;52365;47.464;18.976;2024-02-15T00:05:43;100513.97;;;8.93;61.93
65666;BME280;52365;47.464;18.976;2024-02-15T00:06:04;100515.31;;;9.01;61.70
65666;BME280;52365;47.464;18.976;2024-02-15T00:06:25;100510.38;;;9.12;61.27
65666;BME280;52365;47.464;18.976;2024-02-15T00:06:46;100515.34;;;9.14;61.00
65666;BME280;52365;47.464;18.976;2024-02-15T00:07:08;100506.31;;;9.20;60.96
65666;BME280;52365;47.464;18.976;2024-02-15T00:07:29;100513.88;;;9.25;60.56
65666;BME280;52365;47.464;18.976;2024-02-15T00:07:49;100514.75;;;9.22;60.54
65666;BME280;52365;47.464;18.976;2024-02-15T00:08:10;100511.13;;;9.13;60.67
65666;BME280;52365;47.464;18.976;2024-02-15T00:08:31;100512.50;;;9.33;60.43
65666;BME280;52365;47.464;18.976;2024-02-15T00:08:53;100515.94;;;9.34;60.05
65666;BME280;52365;47.464;18.976;2024-02-15T00:09:14;100504.13;;;9.31;59.93
65666;BME280;52365;47.464;18.976;2024-02-15T00:09:35;100508.34;;;9.16;60.13
65666;BME280;52365;47.464;18.976;2024-02-15T00:09:56;100513.75;;;9.00;60.55
65666;BME280;52365;47.464;18.976;2024-02-15T00:10:17;100511.94;;;8.97;60.86
65666;BME280;52365;47.464;18.976;2024-02-15T00:10:33;100517.12;;;9.04;60.92
65666;BME280;52365;47.464;18.976;2024-02-15T00:10:55;100510.44;;;8.96;61.10
65666;BME280;52365;47.464;18.976;2024-02-15T00:11:16;100517.91;;;9.04;61.08
65666;BME280;52365;47.464;18.976;2024-02-15T00:11:37;100506.94;;;9.12;60.94
65666;BME280;52365;47.464;18.976;2024-02-15T00:12:00;100514.50;;;9.17;60.74
65666;BME280;52365;47.464;18.976;2024-02-15T00:12:20;100512.16;;;9.19;60.68
65666;BME280;52365;47.464;18.976;2024-02-15T00:12:41;100510.28;;;9.16;60.79
65666;BME280;52365;47.464;18.976;2024-02-15T00:13:02;100516.94;;;9.11;60.88
65666;BME280;52365;47.464;18.976;2024-02-15T00:13:23;100510.22;;;9.19;60.77
65666;BME280;52365;47.464;18.976;2024-02-15T00:13:44;100512.06;;;9.22;60.68
65666;BME280;52365;47.464;18.976;2024-02-15T00:14:05;100510.88;;;9.23;60.60
65666;BME280;52365;47.464;18.976;2024-02-15T00:14:27;100512.59;;;9.30;60.48
65666;BME280;52365;47.464;18.976;2024-02-15T00:14:49;100512.59;;;9.30;60.31
65666;BME280;52365;47.464;18.976;2024-02-15T00:15:10;100519.16;;;9.29;60.24
65666;BME280;52365;47.464;18.976;2024-02-15T00:15:32;100514.25;;;9.11;60.40
65666;BME280;52365;47.464;18.976;2024-02-15T00:15:54;100516.09;;;9.14;60.66
65666;BME280;52365;47.464;18.976;2024-02-15T00:16:16;100512.81;;;9.23;60.38
65666;BME280;52365;47.464;18.976;2024-02-15T00:16:37;100513.69;;;9.32;60.20
65666;BME280;52365;47.464;18.976;2024-02-15T00:16:58;100511.09;;;9.29;60.05
65666;BME280;52365;47.464;18.976;2024-02-15T00:17:19;100507.56;;;9.32;59.85
65666;BME280;52365;47.464;18.976;2024-02-15T00:17:40;100509.69;;;9.24;59.76
65666;BME280;52365;47.464;18.976;2024-02-15T00:18:01;100506.00;;;9.18;59.91
65666;BME280;52365;47.464;18.976;2024-02-15T00:18:23;100505.00;;;9.12;60.08
65666;BME280;52365;47.464;18.976;2024-02-15T00:18:44;100508.56;;;9.09;60.23
65666;BME280;52365;47.464;18.976;2024-02-15T00:19:05;100510.25;;;9.03;60.37
65666;BME280;52365;47.464;18.976;2024-02-15T00:19:27;100518.31;;;9.03;60.48
65666;BME280;52365;47.464;18.976;2024-02-15T00:19:51;100509.66;;;8.95;60.59
65666;BME280;52365;47.464;18.976;2024-02-15T00:20:12;100504.34;;;9.08;60.60
65666;BME280;52365;47.464;18.976;2024-02-15T00:20:33;100514.09;;;9.18;60.34
65666;BME280;52365;47.464;18.976;2024-02-15T00:20:57;100508.19;;;9.23;60.08
65666;BME280;52365;47.464;18.976;2024-02-15T00:21:18;100511.28;;;9.22;59.99
65666;BME280;52365;47.464;18.976;2024-02-15T00:21:34;100512.41;;;9.08;60.17
65666;BME280;52365;47.464;18.976;2024-02-15T00:21:56;100512.03;;;8.93;60.79
65666;BME280;52365;47.464;18.976;2024-02-15T00:22:17;100512.13;;;8.90;61.15
65666;BME280;52365;47.464;18.976;2024-02-15T00:22:38;100512.47;;;8.75;61.50
65666;BME280;52365;47.464;18.976;2024-02-15T00:23:01;100514.06;;;8.73;61.78
65666;BME280;52365;47.464;18.976;2024-02-15T00:23:22;100514.34;;;8.78;61.78
65666;BME280;52365;47.464;18.976;2024-02-15T00:23:43;100511.37;;;8.89;61.62
65666;BME280;52365;47.464;18.976;2024-02-15T00:24:04;100512.97;;;8.87;61.42
65666;BME280;52365;47.464;18.976;2024-02-15T00:24:25;100502.84;;;9.07;61.16
65666;BME280;52365;47.464;18.976;2024-02-15T00:24:47;100504.47;;;9.17;60.76
65666;BME280;52365;47.464;18.976;2024-02-15T00:25:09;100509.09;;;9.17;60.60
65666;BME280;52365;47.464;18.976;2024-02-15T00:25:32;100503.31;;;9.18;60.49
65666;BME280;52365;47.464;18.976;2024-02-15T00:25:48;100507.44;;;9.23;60.39
65666;BME280;52365;47.464;18.976;2024-02-15T00:26:10;100507.75;;;9.25;60.31
65666;BME280;52365;47.464;18.976;2024-02-15T00:26:32;100514.41;;;9.20;60.34
65666;BME280;52365;47.464;18.976;2024-02-15T00:26:53;100509.09;;;9.17;60.45
65666;BME280;52365;47.464;18.976;2024-02-15T00:27:15;100520.62;;;9.17;60.51
65666;BME280;52365;47.464;18.976;2024-02-15T00:27:36;100513.50;;;9.11;60.75
65666;BME280;52365;47.464;18.976;2024-02-15T00:27:58;100510.38;;;9.12;60.80
65666;BME280;52365;47.464;18.976;2024-02-15T00:28:20;100508.34;;;9.16;60.72
65666;BME280;52365;47.464;18.976;2024-02-15T00:28:42;100510.03;;;9.26;60.53
65666;BME280;52365;47.464;18.976;2024-02-15T00:29:03;100510.44;;;9.25;60.39
65666;BME280;52365;47.464;18.976;2024-02-15T00:29:24;100513.06;;;9.12;60.63
65666;BME280;52365;47.464;18.976;2024-02-15T00:29:46;100510.63;;;9.18;60.73
65666;BME280;52365;47.464;18.976;2024-02-15T00:30:08;100513.66;;;9.20;60.70
65666;BME280;52365;47.464;18.976;2024-02-15T00:30:29;100513.34;;;9.30;60.49
65666;BME280;52365;47.464;18.976;2024-02-15T00:30:50;100513.88;;;9.25;60.36
65666;BME280;52365;47.464;18.976;2024-02-15T00:31:11;100521.50;;;9.14;60.36
65666;BME280;52365;47.464;18.976;2024-02-15T00:31:32;100506.56;;;8.97;60.72
65666;BME280;52365;47.464;18.976;2024-02-15T00:31:53;100515.25;;;8.88;61.36
65666;BME280;52365;47.464;18.976;2024-02-15T00:32:14;100513.22;;;8.92;61.51
65666;BME280;52365;47.464;18.976;2024-02-15T00:32:35;100512.31;;;9.12;61.16
65666;BME280;52365;47.464;18.976;2024-02-15T00:32:57;100503.31;;;9.18;60.83
65666;BME280;52365;47.464;18.976;2024-02-15T00:33:18;100508.88;;;9.11;60.89
65666;BME280;52365;47.464;18.976;2024-02-15T00:33:39;100516.47;;;9.00;61.13
65666;BME280;52365;47.464;18.976;2024-02-15T00:34:00;100515.31;;;8.85;61.44
65666;BME280;52365;47.464;18.976;2024-02-15T00:34:23;100510.41;;;8.67;62.06
65666;BME280;52365;47.464;18.976;2024-02-15T00:34:46;100508.81;;;8.53;62.82
65666;BME280;52365;47.464;18.976;2024-02-15T00:35:07;100510.81;;;8.49;63.12
65666;BME280;52365;47.464;18.976;2024-02-15T00:35:30;100508.97;;;8.62;63.01
65666;BME280;52365;47.464;18.976;2024-02-15T00:35:51;100509.03;;;8.75;62.71
65666;BME280;52365;47.464;18.976;2024-02-15T00:36:12;100508.53;;;8.80;62.44
65666;BME280;52365;47.464;18.976;2024-02-15T00:36:34;100506.44;;;8.71;62.47
65666;BME280;52365;47.464;18.976;2024-02-15T00:36:55;100508.47;;;8.67;62.49
65666;BME280;52365;47.464;18.976;2024-02-15T00:37:16;100505.03;;;8.50;62.69
65666;BME280;52365;47.464;18.976;2024-02-15T00:37:37;100508.37;;;8.38;63.06
65666;BME280;52365;47.464;18.976;2024-02-15T00:37:58;100503.34;;;8.40;63.28
65666;BME280;52365;47.464;18.976;2024-02-15T00:38:19;100499.72;;;8.47;63.22
65666;BME280;52365;47.464;18.976;2024-02-15T00:38:41;100507.47;;;8.61;62.97
65666;BME280;52365;47.464;18.976;2024-02-15T00:39:03;100504.50;;;8.88;62.42
65666;BME280;52365;47.464;18.976;2024-02-15T00:39:26;100499.44;;;9.19;61.40
65666;BME280;52365;47.464;18.976;2024-02-15T00:39:47;100503.16;;;9.38;60.58
65666;BME280;52365;47.464;18.976;2024-02-15T00:40:08;100508.75;;;9.44;60.02
65666;BME280;52365;47.464;18.976;2024-02-15T00:40:29;100502.59;;;9.30;59.83
65666;BME280;52365;47.464;18.976;2024-02-15T00:40:50;100504.47;;;9.17;59.98
65666;BME280;52365;47.464;18.976;2024-02-15T00:41:11;100507.38;;;9.10;60.18
65666;BME280;52365;47.464;18.976;2024-02-15T00:41:32;100508.41;;;9.00;60.41
65666;BME280;52365;47.464;18.976;2024-02-15T00:41:54;100498.81;;;8.70;61.26
65666;BME280;52365;47.464;18.976;2024-02-15T00:42:16;100498.31;;;8.58;61.83
65666;BME280;52365;47.464;18.976;2024-02-15T00:42:37;100497.47;;;8.62;62.05
65666;BME280;52365;47.464;18.976;2024-02-15T00:42:58;100495.78;;;8.51;62.25
65666;BME280;52365;47.464;18.976;2024-02-15T00:43:19;100492.19;;;8.58;62.33
65666;BME280;52365;47.464;18.976;2024-02-15T00:43:40;100498.72;;;8.57;62.51
65666;BME280;52365;47.464;18.976;2024-02-15T00:43:56;100500.09;;;8.49;63.01
65666;BME280;52365;47.464;18.976;2024-02-15T00:44:17;100502.34;;;8.50;63.10
65666;BME280;52365;47.464;18.976;2024-02-15T00:44:39;100501.97;;;8.65;62.78
65666;BME280;52365;47.464;18.976;2024-02-15T00:45:00;100506.34;;;8.91;62.07
65666;BME280;52365;47.464;18.976;2024-02-15T00:45:21;100499.50;;;9.03;61.51
65666;BME280;52365;47.464;18.976;2024-02-15T00:45:42;100497.69;;;9.13;60.83
65666;BME280;52365;47.464;18.976;2024-02-15T00:46:03;100502.88;;;9.20;60.54
65666;BME280;52365;47.464;18.976;2024-02-15T00:46:24;100507.66;;;9.28;60.13
65666;BME280;52365;47.464;18.976;2024-02-15T00:46:47;100503.69;;;9.33;59.81
65666;BME280;52365;47.464;18.976;2024-02-15T00:47:11;100509.81;;;9.33;59.39
65666;BME280;52365;47.464;18.976;2024-02-15T00:47:32;100507.13;;;9.33;59.45
65666;BME280;52365;47.464;18.976;2024-02-15T00:47:53;100508.63;;;9.34;59.27
65666;BME280;52365;47.464;18.976;2024-02-15T00:48:14;100506.00;;;9.18;59.42
65666;BME280;52365;47.464;18.976;2024-02-15T00:48:35;100510.78;;;8.81;60.38
65666;BME280;52365;47.464;18.976;2024-02-15T00:48:56;100507.28;;;8.68;60.99
65666;BME280;52365;47.464;18.976;2024-02-15T00:49:18;100507.03;;;8.79;61.19
65666;BME280;52365;47.464;18.976;2024-02-15T00:49:42;100501.37;;;8.90;60.86
65666;BME280;52365;47.464;18.976;2024-02-15T00:50:04;100508.81;;;8.98;60.67
65666;BME280;52365;47.464;18.976;2024-02-15T00:50:25;100513.81;;;9.13;60.30
65666;BME280;52365;47.464;18.976;2024-02-15T00:50:46;100511.63;;;9.24;59.92
65666;BME280;52365;47.464;18.976;2024-02-15T00:51:07;100502.97;;;9.16;59.85
65666;BME280;52365;47.464;18.976;2024-02-15T00:51:28;100507.97;;;9.01;60.06
65666;BME280;52365;47.464;18.976;2024-02-15T00:51:49;100511.72;;;8.91;60.50
65666;BME280;52365;47.464;18.976;2024-02-15T00:52:10;100509.03;;;8.91;60.74
65666;BME280;52365;47.464;18.976;2024-02-15T00:52:31;100504.19;;;8.99;60.68
65666;BME280;52365;47.464;18.976;2024-02-15T00:52:52;100514.41;;;8.91;60.90
65666;BME280;52365;47.464;18.976;2024-02-15T00:53:14;100512.88;;;8.90;61.05
65666;BME280;52365;47.464;18.976;2024-02-15T00:53:35;100513.81;;;8.83;61.16
65666;BME280;52365;47.464;18.976;2024-02-15T00:53:56;100514.75;;;8.77;61.27
65666;BME280;52365;47.464;18.976;2024-02-15T00:54:17;100507.63;;;8.70;61.53
65666;BME280;52365;47.464;18.976;2024-02-15T00:54:37;100509.78;;;8.75;61.54
65666;BME280;52365;47.464;18.976;2024-02-15T00:54:58;100514.34;;;8.78;61.57
65666;BME280;52365;47.464;18.976;2024-02-15T00:55:19;100508.97;;;8.78;61.54
65666;BME280;52365;47.464;18.976;2024-02-15T00:55:40;100516.50;;;8.67;61.64
65666;BME280;52365;47.464;18.976;2024-02-15T00:55:57;100515.16;;;8.75;61.62
65666;BME280;52365;47.464;18.976;2024-02-15T00:56:18;100508.69;;;8.73;61.67
65666;BME280;52365;47.464;18.976;2024-02-15T00:56:38;100513.06;;;8.83;61.68
65666;BME280;52365;47.464;18.976;2024-02-15T00:56:59;100515.00;;;8.82;61.54
65666;BME280;52365;47.464;18.976;2024-02-15T00:57:20;100514.81;;;8.90;61.30
65666;BME280;52365;47.464;18.976;2024-02-15T00:57:41;100513.06;;;8.50;61.81
65666;BME280;52365;47.464;18.976;2024-02-15T00:58:02;100516.94;;;8.49;62.17
65666;BME280;52365;47.464;18.976;2024-02-15T00:58:23;100503.44;;;8.53;62.16
65666;BME280;52365;47.464;18.976;2024-02-15T00:58:45;100505.84;;;8.64;61.98
65666;BME280;52365;47.464;18.976;2024-02-15T00:59:06;100506.78;;;8.41;62.34
65666;BME280;52365;47.464;18.976;2024-02-15T00:59:27;100503.00;;;8.22;62.86
65666;BME280;52365;47.464;18.976;2024-02-15T00:59:48;100504.44;;;8.43;62.70
65666;BME280;52365;47.464;18.976;2024-02-15T01:00:09;100512.25;;;8.70;62.13
65666;BME280;52365;47.464;18.976;2024-02-15T01:00:30;100508.97;;;8.78;61.45
65666;BME280;52365;47.464;18.976;2024-02-15T01:00:46;100510.22;;;8.74;61.37
65666;BME280;52365;47.464;18.976;2024-02-15T01:01:07;100512.16;;;8.57;61.52
65666;BME280;52365;47.464;18.976;2024-02-15T01:01:29;100508.28;;;8.74;61.26
65666;BME280;52365;47.464;18.976;2024-02-15T01:01:50;100507.34;;;8.32;61.64
65666;BME280;52365;47.464;18.976;2024-02-15T01:02:11;100512.47;;;8.26;62.06
65666;BME280;52365;47.464;18.976;2024-02-15T01:02:33;100513.31;;;8.23;62.37
65666;BME280;52365;47.464;18.976;2024-02-15T01:02:55;100506.41;;;8.22;62.56
65666;BME280;52365;47.464;18.976;2024-02-15T01:03:16;100513.81;;;8.35;62.30
65666;BME280;52365;47.464;18.976;2024-02-15T01:03:37;100510.91;;;8.45;62.04
65666;BME280;52365;47.464;18.976;2024-02-15T01:03:59;100510.16;;;8.45;61.74
65666;BME280;52365;47.464;18.976;2024-02-15T01:04:20;100511.06;;;8.38;61.87
65666;BME280;52365;47.464;18.976;2024-02-15T01:04:41;100521.66;;;8.45;61.79
65666;BME280;52365;47.464;18.976;2024-02-15T01:05:03;100512.09;;;8.61;61.50
65666;BME280;52365;47.464;18.976;2024-02-15T01:05:24;100510.12;;;8.77;61.07
65666;BME280;52365;47.464;18.976;2024-02-15T01:05:45;100515.56;;;8.90;60.62
65666;BME280;52365;47.464;18.976;2024-02-15T01:06:06;100507.75;;;8.96;60.17
65666;BME280;52365;47.464;18.976;2024-02-15T01:06:27;100513.28;;;9.05;59.91
65666;BME280;52365;47.464;18.976;2024-02-15T01:06:48;100508.75;;;9.02;59.83
65666;BME280;52365;47.464;18.976;2024-02-15T01:07:09;100510.91;;;9.07;59.75
65666;BME280;52365;47.464;18.976;2024-02-15T01:07:30;100513.44;;;8.98;59.78
65666;BME280;52365;47.464;18.976;2024-02-15T01:07:51;100507.56;;;8.87;60.06
65666;BME280;52365;47.464;18.976;2024-02-15T01:08:12;100508.09;;;8.81;60.33
65666;BME280;52365;47.464;18.976;2024-02-15T01:08:33;100506.06;;;8.86;60.36
65666;BME280;52365;47.464;18.976;2024-02-15T01:08:54;100513.12;;;8.96;60.18
65666;BME280;52365;47.464;18.976;2024-02-15T01:09:10;100507.19;;;8.88;60.18
65666;BME280;52365;47.464;18.976;2024-02-15T01:09:31;100512.72;;;8.81;60.38
65666;BME280;52365;47.464;18.976;2024-02-15T01:09:52;100513.81;;;8.83;60.48
65666;BME280;52365;47.464;18.976;2024-02-15T01:10:13;100513.62;;;8.91;60.32
65666;BME280;52365;47.464;18.976;2024-02-15T01:10:34;100512.69;;;8.97;60.18
65666;BME280;52365;47.464;18.976;2024-02-15T01:10:55;100519.59;;;8.98;60.05
65666;BME280;52365;47.464;18.976;2024-02-15T01:11:17;100509.25;;;8.97;60.07
65666;BME280;52365;47.464;18.976;2024-02-15T01:11:38;100512.63;;;8.85;60.54
65666;BME280;52365;47.464;18.976;2024-02-15T01:11:59;100511.91;;;8.68;60.89
65666;BME280;52365;47.464;18.976;2024-02-15T01:12:15;100510.56;;;8.60;61.39
65666;BME280;52365;47.464;18.976;2024-02-15T01:12:36;100502.16;;;8.57;61.54
65666;BME280;52365;47.464;18.976;2024-02-15T01:12:56;100502.09;;;8.61;61.55
65666;BME280;52365;47.464;18.976;2024-02-15T01:13:17;100513.16;;;8.79;61.26
65666;BME280;52365;47.464;18.976;2024-02-15T01:13:38;100515.47;;;8.94;60.81
65666;BME280;52365;47.464;18.976;2024-02-15T01:13:59;100512.63;;;9.01;60.48
65666;BME280;52365;47.464;18.976;2024-02-15T01:14:20;100514.78;;;9.06;60.26
65666;BME280;52365;47.464;18.976;2024-02-15T01:14:42;100511.56;;;9.11;60.09
65666;BME280;52365;47.464;18.976;2024-02-15T01:15:04;100511.25;;;9.09;60.00
65666;BME280;52365;47.464;18.976;2024-02-15T01:15:25;100505.63;;;9.03;60.16
65666;BME280;52365;47.464;18.976;2024-02-15T01:15:46;100516.09;;;9.14;60.04
65666;BME280;52365;47.464;18.976;2024-02-15T01:16:07;100517.53;;;9.19;59.85
65666;BME280;52365;47.464;18.976;2024-02-15T01:16:28;100510.53;;;9.21;59.73
65666;BME280;52365;47.464;18.976;2024-02-15T01:16:44;100514.59;;;9.13;59.71
65666;BME280;52365;47.464;18.976;2024-02-15T01:17:05;100512.91;;;9.19;59.74
65666;BME280;52365;47.464;18.976;2024-02-15T01:17:26;100514.84;;;9.19;59.73
65666;BME280;52365;47.464;18.976;2024-02-15T01:17:48;100506.69;;;9.22;59.70
65666;BME280;52365;47.464;18.976;2024-02-15T01:18:09;100511.19;;;9.25;59.58
65666;BME280;52365;47.464;18.976;2024-02-15T01:18:30;100516.56;;;9.25;59.53
65666;BME280;52365;47.464;18.976;2024-02-15T01:18:52;100516.03;;;9.30;59.45
65666;BME280;52365;47.464;18.976;2024-02-15T01:19:13;100510.66;;;9.30;59.31
65666;BME280;52365;47.464;18.976;2024-02-15T01:19:34;100520.31;;;9.15;59.63
65666;BME280;52365;47.464;18.976;2024-02-15T01:19:55;100510.97;;;9.20;59.71
65666;BME280;52365;47.464;18.976;2024-02-15T01:20:16;100512.16;;;9.19;59.79
65666;BME280;52365;47.464;18.976;2024-02-15T01:20:37;100509.03;;;9.20;59.72
65666;BME280;52365;47.464;18.976;2024-02-15T01:20:58;100511.47;;;9.15;59.87
65666;BME280;52365;47.464;18.976;2024-02-15T01:21:19;100508.88;;;9.11;59.90
65666;BME280;52365;47.464;18.976;2024-02-15T01:21:40;100502.25;;;8.99;60.24
65666;BME280;52365;47.464;18.976;2024-02-15T01:22:01;100511.28;;;8.93;60.54
65666;BME280;52365;47.464;18.976;2024-02-15T01:22:23;100507.09;;;8.92;60.70
65666;BME280;52365;47.464;18.976;2024-02-15T01:22:47;100510.00;;;8.97;60.68
65666;BME280;52365;47.464;18.976;2024-02-15T01:23:08;100514.72;;;8.93;60.96
65666;BME280;52365;47.464;18.976;2024-02-15T01:23:29;100515.81;;;8.96;60.94
65666;BME280;52365;47.464;18.976;2024-02-15T01:23:50;100509.34;;;8.93;60.97
65666;BME280;52365;47.464;18.976;2024-02-15T01:24:14;100503.38;;;8.86;61.27
65666;BME280;52365;47.464;18.976;2024-02-15T01:24:35;100506.06;;;8.86;61.27
65666;BME280;52365;47.464;18.976;2024-02-15T01:24:56;100509.06;;;9.04;61.02
65666;BME280;52365;47.464;18.976;2024-02-15T01:25:18;100515.84;;;9.08;60.68
65666;BME280;52365;47.464;18.976;2024-02-15T01:25:39;100507.91;;;9.05;60.68
65666;BME280;52365;47.464;18.976;2024-02-15T01:26:00;100511.00;;;9.03;60.70
65666;BME280;52365;47.464;18.976;2024-02-15T01:26:21;100512.03;;;8.93;60.89
65666;BME280;52365;47.464;18.976;2024-02-15T01:26:44;100510.63;;;8.89;61.24
65666;BME280;52365;47.464;18.976;2024-02-15T01:27:05;100517.31;;;8.97;61.21
65666;BME280;52365;47.464;18.976;2024-02-15T01:27:28;100513.88;;;8.96;61.18
65666;BME280;52365;47.464;18.976;2024-02-15T01:27:50;100516.22;;;8.94;61.17
65666;BME280;52365;47.464;18.976;2024-02-15T01:28:11;100515.63;;;8.87;61.49
65666;BME280;52365;47.464;18.976;2024-02-15T01:28:32;100514.56;;;8.84;61.66
65666;BME280;52365;47.464;18.976;2024-02-15T01:28:53;100505.56;;;8.91;61.57
65666;BME280;52365;47.464;18.976;2024-02-15T01:29:14;100505.25;;;8.89;61.58
65666;BME280;52365;47.464;18.976;2024-02-15T01:29:35;100522.03;;;8.93;61.47
65666;BME280;52365;47.464;18.976;2024-02-15T01:29:57;100509.34;;;8.93;61.42
65666;BME280;52365;47.464;18.976;2024-02-15T01:30:18;100514.94;;;8.99;61.36
65666;BME280;52365;47.464;18.976;2024-02-15T01:30:34;100513.72;;;8.87;61.59
65666;BME280;52365;47.464;18.976;2024-02-15T01:30:55;100514.56;;;8.84;61.73
65666;BME280;52365;47.464;18.976;2024-02-15T01:31:16;100512.63;;;8.85;61.74
65666;BME280;52365;47.464;18.976;2024-02-15T01:31:37;100503.25;;;8.76;61.84
65666;BME280;52365;47.464;18.976;2024-02-15T01:31:59;100511.91;;;8.68;62.03
65666;BME280;52365;47.464;18.976;2024-02-15T01:32:20;100507.94;;;8.72;62.15
65666;BME280;52365;47.464;18.976;2024-02-15T01:32:41;100513.81;;;8.83;61.98
65666;BME280;52365;47.464;18.976;2024-02-15T01:33:03;100511.94;;;8.97;61.67
65666;BME280;52365;47.464;18.976;2024-02-15T01:33:24;100508.03;;;9.14;61.16
65666;BME280;52365;47.464;18.976;2024-02-15T01:33:45;100507.97;;;9.30;60.61
65666;BME280;52365;47.464;18.976;2024-02-15T01:34:06;100510.03;;;9.26;60.28
65666;BME280;52365;47.464;18.976;2024-02-15T01:34:27;100511.28;;;9.22;60.27
65666;BME280;52365;47.464;18.976;2024-02-15T01:34:48;100509.16;;;9.29;60.21
65666;BME280;52365;47.464;18.976;2024-02-15T01:35:12;100501.69;;;9.21;60.15
65666;BME280;52365;47.464;18.976;2024-02-15T01:35:32;100511.66;;;9.07;60.41
65666;BME280;52365;47.464;18.976;2024-02-15T01:35:54;100508.88;;;9.11;60.58
65666;BME280;52365;47.464;18.976;2024-02-15T01:36:16;100508.69;;;9.18;60.46
65666;BME280;52365;47.464;18.976;2024-02-15T01:36:37;100514.59;;;9.13;60.35
65666;BME280;52365;47.464;18.976;2024-02-15T01:36:58;100516.88;;;8.98;60.56
65666;BME280;52365;47.464;18.976;2024-02-15T01:37:20;100515.25;;;8.88;60.91
65666;BME280;52365;47.464;18.976;2024-02-15T01:37:41;100512.41;;;8.79;61.25
65666;BME280;52365;47.464;18.976;2024-02-15T01:38:02;100508.75;;;8.86;61.26
65666;BME280;52365;47.464;18.976;2024-02-15T01:38:23;100509.84;;;9.04;60.96
65666;BME280;52365;47.464;18.976;2024-02-15T01:38:44;100506.84;;;9.15;60.59
65666;BME280;52365;47.464;18.976;2024-02-15T01:39:05;100517.84;;;9.21;60.26
65666;BME280;52365;47.464;18.976;2024-02-15T01:39:26;100509.69;;;9.24;60.12
65666;BME280;52365;47.464;18.976;2024-02-15T01:39:47;100511.75;;;9.33;59.90
65666;BME280;52365;47.464;18.976;2024-02-15T01:40:09;100506.06;;;9.44;59.54
65666;BME280;52365;47.464;18.976;2024-02-15T01:40:33;100507.59;;;9.45;59.28
65666;BME280;52365;47.464;18.976;2024-02-15T01:40:54;100511.16;;;9.54;59.07
65666;BME280;52365;47.464;18.976;2024-02-15T01:41:15;100514.56;;;9.42;59.03
65666;BME280;52365;47.464;18.976;2024-02-15T01:41:36;100502.72;;;9.27;59.31
65666;BME280;52365;47.464;18.976;2024-02-15T01:41:57;100503.72;;;9.17;59.66
65666;BME280;52365;47.464;18.976;2024-02-15T01:42:18;100510.63;;;9.18;59.87
65666;BME280;52365;47.464;18.976;2024-02-15T01:42:39;100510.66;;;9.30;59.77
65666;BME280;52365;47.464;18.976;2024-02-15T01:43:00;100516.50;;;9.13;60.02
65666;BME280;52365;47.464;18.976;2024-02-15T01:43:21;100506.16;;;8.82;60.83
65666;BME280;52365;47.464;18.976;2024-02-15T01:43:45;100508.22;;;8.62;61.51
65666;BME280;52365;47.464;18.976;2024-02-15T01:44:06;100514.59;;;8.51;62.06
65666;BME280;52365;47.464;18.976;2024-02-15T01:44:28;100515.16;;;8.43;62.41
65666;BME280;52365;47.464;18.976;2024-02-15T01:44:49;100512.47;;;8.43;62.46
65666;BME280;52365;47.464;18.976;2024-02-15T01:45:10;100512.56;;;8.55;62.23
65666;BME280;52365;47.464;18.976;2024-02-15T01:45:32;100525.84;;;8.46;62.35
65666;BME280;52365;47.464;18.976;2024-02-15T01:45:54;100516.94;;;8.66;62.14
65666;BME280;52365;47.464;18.976;2024-02-15T01:46:15;100516.47;;;9.00;61.21
65666;BME280;52365;47.464;18.976;2024-02-15T01:46:37;100517.19;;;9.17;60.46
65666;BME280;52365;47.464;18.976;2024-02-15T01:47:00;100515.63;;;9.03;60.25
65666;BME280;52365;47.464;18.976;2024-02-15T01:47:21;100519.50;;;9.02;60.37
65666;BME280;52365;47.464;18.976;2024-02-15T01:47:43;100517.50;;;8.90;60.44
65666;BME280;52365;47.464;18.976;2024-02-15T01:48:05;100518.03;;;8.68;61.01
65666;BME280;52365;47.464;18.976;2024-02-15T01:48:26;100509.56;;;8.53;61.61
65666;BME280;52365;47.464;18.976;2024-02-15T01:48:47;100510.47;;;8.47;61.84
65666;BME280;52365;47.464;18.976;2024-02-15T01:49:09;100508.31;;;8.58;61.80
65666;BME280;52365;47.464;18.976;2024-02-15T01:49:30;100507.69;;;8.67;61.74
65666;BME280;52365;47.464;18.976;2024-02-15T01:49:52;100512.81;;;8.77;61.50
65666;BME280;52365;47.464;18.976;2024-02-15T01:50:14;100511.44;;;8.86;61.16
65666;BME280;52365;47.464;18.976;2024-02-15T01:50:36;100518.44;;;8.83;61.25